Ashland, Wisconsin
Current Conditions -  °F | °C
As of 4:53 PM on Saturday 25 Oct 2014 (Local Time) from KASX Reporting Station
Clear Clear  
Wind Chill: 58°   Ceiling: Unl
Heat Index: 58°   Visibility: 10mi
Dew Point: 26°   Wind: 15mph
Humidity: 30%   Direction: 280°W
Pressure: 29.91"   Gusts: 28mph
Location:  46.59°N, 90.89°W
Report Text: KASX 252153Z AUTO 28013G24KT 10SM CLR 14/M03 A2991 RMK AO2 PK WND 29028/2114 SLP131 T01441033
Loading
Personal Weather Stations






























Interactive Weather Map New forecast layout! Learn more

10-Day Weather Forecast

Advertisements
Track Severe Weather on mobile